createdAt,value
2022-09-18T00:02:35.265Z,11.10
2022-09-18T00:05:38.147Z,11.10
2022-09-18T00:08:40.829Z,11.30
2022-09-18T00:11:45.233Z,11.20
2022-09-18T00:14:46.890Z,11.20
2022-09-18T00:17:48.603Z,11.20
2022-09-18T00:20:50.268Z,11.30
2022-09-18T00:23:55.425Z,11.20
2022-09-18T00:26:57.174Z,11.20
2022-09-18T00:29:58.830Z,11.10
2022-09-18T00:33:00.511Z,11.10
2022-09-18T00:36:04.722Z,11.20
2022-09-18T00:39:07.466Z,11.20
2022-09-18T00:42:12.986Z,11.10
2022-09-18T00:45:14.681Z,11.20
2022-09-18T00:48:17.037Z,11.20
2022-09-18T00:51:19.472Z,11.20
2022-09-18T00:54:35.993Z,11.20
2022-09-18T00:57:43.407Z,11.30
2022-09-18T01:00:45.185Z,11.30
2022-09-18T01:03:46.967Z,11.20
2022-09-18T01:07:09.881Z,11.30
2022-09-18T01:10:27.680Z,11.20
2022-09-18T01:13:45.296Z,11.20
2022-09-18T01:16:53.131Z,11.20
2022-09-18T01:20:20.653Z,11.30
2022-09-18T01:23:55.842Z,11.20
2022-09-18T01:27:09.736Z,11.20
2022-09-18T01:30:13.146Z,11.20
2022-09-18T01:33:32.953Z,11.20
2022-09-18T01:36:40.116Z,11.30
2022-09-18T01:40:04.596Z,11.30
2022-09-18T01:43:09.373Z,11.30
2022-09-18T01:46:15.392Z,11.30
2022-09-18T01:49:36.729Z,11.30
2022-09-18T01:52:44.733Z,11.30
2022-09-18T01:55:52.014Z,11.30
2022-09-18T01:58:58.582Z,11.30
2022-09-18T02:02:18.196Z,11.40
2022-09-18T02:05:53.153Z,11.30
2022-09-18T02:08:56.630Z,11.30
2022-09-18T02:12:02.187Z,11.40
2022-09-18T02:15:10.991Z,11.30
2022-09-18T02:18:22.189Z,11.30
2022-09-18T02:21:30.428Z,11.30
2022-09-18T02:24:36.324Z,11.40
2022-09-18T02:27:41.641Z,11.30
2022-09-18T02:30:44.345Z,11.30
2022-09-18T02:33:46.041Z,11.30
2022-09-18T02:36:53.762Z,11.40
2022-09-18T02:40:28.945Z,11.30
2022-09-18T02:43:35.235Z,11.30
2022-09-18T02:47:02.827Z,11.40
2022-09-18T02:50:07.877Z,11.30
2022-09-18T02:53:30.281Z,11.40
2022-09-18T02:56:41.073Z,11.50
2022-09-18T02:59:48.833Z,11.50
2022-09-18T03:02:52.374Z,11.40
2022-09-18T03:06:07.710Z,11.40
2022-09-18T03:09:11.380Z,11.40
2022-09-18T03:12:13.177Z,11.30
2022-09-18T03:15:22.209Z,11.40
2022-09-18T03:18:25.934Z,11.40
2022-09-18T03:21:30.429Z,11.30
2022-09-18T03:24:32.467Z,11.40
2022-09-18T03:27:34.439Z,11.50
2022-09-18T03:30:36.752Z,11.30
2022-09-18T03:33:38.645Z,11.40
2022-09-18T03:36:40.300Z,11.40
2022-09-18T03:39:42.543Z,11.40
2022-09-18T03:42:48.751Z,11.40
2022-09-18T03:45:50.488Z,11.40
2022-09-18T03:48:53.556Z,11.40
2022-09-18T03:51:57.011Z,11.40
2022-09-18T03:54:58.824Z,11.30
2022-09-18T03:58:35.940Z,11.30
2022-09-18T04:01:57.407Z,11.40
2022-09-18T04:05:22.446Z,11.40
2022-09-18T04:08:42.648Z,11.40
2022-09-18T04:11:58.541Z,11.30
2022-09-18T04:15:00.778Z,11.30
2022-09-18T04:18:02.506Z,11.30
2022-09-18T04:21:04.196Z,11.30
2022-09-18T04:24:06.664Z,11.30
2022-09-18T04:27:08.402Z,11.40
2022-09-18T04:30:10.692Z,11.40
2022-09-18T04:33:16.165Z,11.30
2022-09-18T04:36:18.239Z,11.40
2022-09-18T04:39:20.409Z,11.30
2022-09-18T04:42:22.796Z,11.30
2022-09-18T04:45:25.081Z,11.30
2022-09-18T04:48:26.778Z,11.40
2022-09-18T04:51:30.053Z,11.30
2022-09-18T04:54:31.752Z,11.30
2022-09-18T04:57:33.713Z,11.30
2022-09-18T05:00:38.084Z,11.30
2022-09-18T05:03:40.681Z,11.30
2022-09-18T05:06:46.140Z,11.30
2022-09-18T05:09:47.898Z,11.30
2022-09-18T05:12:50.706Z,11.30
2022-09-18T05:15:56.294Z,11.30
2022-09-18T05:18:59.317Z,11.30
2022-09-18T05:22:01.039Z,11.20
2022-09-18T05:25:03.837Z,11.30
2022-09-18T05:28:05.849Z,11.30
2022-09-18T05:31:14.277Z,11.30
2022-09-18T05:34:20.231Z,11.30
2022-09-18T05:37:21.967Z,11.30
2022-09-18T05:40:31.331Z,11.30
2022-09-18T05:43:34.554Z,11.40
2022-09-18T05:46:39.037Z,11.40
2022-09-18T05:49:40.724Z,11.40
2022-09-18T05:52:42.463Z,11.40
2022-09-18T05:55:44.715Z,11.40
2022-09-18T05:58:46.428Z,11.50
2022-09-18T06:01:48.187Z,11.40
2022-09-18T06:04:58.566Z,11.50
2022-09-18T06:08:01.930Z,11.50
2022-09-18T06:11:04.524Z,11.50
2022-09-18T06:14:07.165Z,11.50
2022-09-18T06:17:09.527Z,11.40
2022-09-18T06:20:11.984Z,11.50
2022-09-18T06:23:15.935Z,11.50
2022-09-18T06:26:34.227Z,11.50
2022-09-18T06:29:35.941Z,11.50
2022-09-18T06:32:43.737Z,11.50
2022-09-18T06:35:48.941Z,11.50
2022-09-18T06:38:57.885Z,11.50
2022-09-18T06:42:00.334Z,11.60
2022-09-18T06:45:20.741Z,11.60
2022-09-18T06:48:25.168Z,11.70
2022-09-18T06:51:28.620Z,11.50
2022-09-18T06:54:42.308Z,11.60
2022-09-18T06:57:53.265Z,11.50
2022-09-18T07:00:55.266Z,11.60
2022-09-18T07:04:04.135Z,11.60
2022-09-18T07:07:16.085Z,11.60
2022-09-18T07:10:21.003Z,11.70
2022-09-18T07:13:23.472Z,11.70
2022-09-18T07:16:25.210Z,11.70
2022-09-18T07:19:27.136Z,11.60
2022-09-18T07:22:29.432Z,11.70
2022-09-18T07:25:32.118Z,11.60
2022-09-18T07:28:34.928Z,11.70
2022-09-18T07:31:46.457Z,11.80
2022-09-18T07:34:48.690Z,11.80
2022-09-18T07:38:03.281Z,11.80
2022-09-18T07:41:20.763Z,11.70
2022-09-18T07:44:22.629Z,11.80
2022-09-18T07:47:25.257Z,11.90
2022-09-18T07:50:27.807Z,11.90
2022-09-18T07:53:29.675Z,12.00
2022-09-18T07:56:34.194Z,12.00
2022-09-18T07:59:36.974Z,12.00
2022-09-18T08:02:40.453Z,12.00
2022-09-18T08:05:42.509Z,12.10
2022-09-18T08:08:46.655Z,12.20
2022-09-18T08:12:11.708Z,12.20
2022-09-18T08:15:22.903Z,12.10
2022-09-18T08:18:43.359Z,12.00
2022-09-18T08:22:04.774Z,12.00
2022-09-18T08:25:08.619Z,12.10
2022-09-18T08:28:10.559Z,12.00
2022-09-18T08:31:32.565Z,12.00
2022-09-18T08:34:34.696Z,11.90
2022-09-18T08:37:37.464Z,11.80
2022-09-18T08:41:20.205Z,11.80
2022-09-18T08:44:25.441Z,12.30
2022-09-18T08:47:39.100Z,11.70
2022-09-18T08:50:48.117Z,11.80
2022-09-18T08:53:57.148Z,11.70
2022-09-18T08:57:35.281Z,11.80
2022-09-18T09:00:42.398Z,11.80
2022-09-18T09:04:17.107Z,11.80
2022-09-18T09:07:36.912Z,11.70
2022-09-18T09:11:24.508Z,11.80
2022-09-18T09:14:57.583Z,11.90
2022-09-18T09:18:17.086Z,11.80
2022-09-18T09:21:25.100Z,11.80
2022-09-18T09:24:32.674Z,11.90
2022-09-18T09:27:49.271Z,11.90
2022-09-18T09:31:13.006Z,11.90
2022-09-18T09:34:44.309Z,11.80
2022-09-18T09:38:33.351Z,11.90
2022-09-18T09:41:35.253Z,11.70
2022-09-18T09:44:43.944Z,11.70
2022-09-18T09:48:05.271Z,11.70
2022-09-18T09:51:26.736Z,11.60
2022-09-18T09:54:30.876Z,11.50
2022-09-18T09:58:11.260Z,11.60
2022-09-18T10:01:39.996Z,11.70
2022-09-18T10:04:56.808Z,11.70
2022-09-18T10:08:08.329Z,11.70
2022-09-18T10:11:13.094Z,11.60
2022-09-18T10:14:24.769Z,11.70
2022-09-18T10:17:33.104Z,11.70
2022-09-18T10:20:37.344Z,11.60
2022-09-18T10:23:48.040Z,11.50
2022-09-18T10:26:58.307Z,11.60
2022-09-18T10:30:00.192Z,11.60
2022-09-18T10:33:30.618Z,11.60
2022-09-18T10:36:38.877Z,11.70
2022-09-18T10:39:52.019Z,11.90
2022-09-18T10:42:55.386Z,12.00
2022-09-18T10:46:00.175Z,12.20
2022-09-18T10:49:33.002Z,12.10
2022-09-18T10:52:42.630Z,12.30
2022-09-18T10:55:55.056Z,12.40
2022-09-18T10:59:13.144Z,12.40
2022-09-18T11:02:19.889Z,12.40
2022-09-18T11:05:28.740Z,12.50
2022-09-18T11:08:35.407Z,12.40
2022-09-18T11:11:44.787Z,12.50
2022-09-18T11:15:17.381Z,12.40
2022-09-18T11:18:20.439Z,12.30
2022-09-18T11:21:22.760Z,12.50
2022-09-18T11:24:28.229Z,12.40
2022-09-18T11:27:47.438Z,12.20
2022-09-18T11:31:05.139Z,11.70
2022-09-18T11:34:20.673Z,12.40
2022-09-18T11:37:35.985Z,12.40
2022-09-18T11:40:48.212Z,12.10
2022-09-18T11:44:32.821Z,12.20
2022-09-18T11:47:45.958Z,12.20
2022-09-18T11:50:48.857Z,12.20
2022-09-18T11:53:55.377Z,12.10
2022-09-18T11:57:01.962Z,12.10
2022-09-18T12:00:17.399Z,12.10
2022-09-18T12:03:27.821Z,12.20
2022-09-18T12:06:55.996Z,12.20
2022-09-18T12:10:11.039Z,12.10
2022-09-18T12:13:51.909Z,11.40
2022-09-18T12:17:01.053Z,11.60
2022-09-18T12:20:11.499Z,11.60
2022-09-18T12:23:16.023Z,11.50
2022-09-18T12:26:53.295Z,11.50
2022-09-18T12:30:04.041Z,11.30
2022-09-18T12:33:24.406Z,11.30
2022-09-18T12:36:57.995Z,11.40
2022-09-18T12:40:49.607Z,11.20
2022-09-18T12:44:06.051Z,11.30
2022-09-18T12:47:35.951Z,11.30
2022-09-18T12:50:58.708Z,11.40
2022-09-18T12:54:36.847Z,11.30
2022-09-18T12:57:57.083Z,11.50
2022-09-18T13:01:03.467Z,11.00
2022-09-18T13:04:20.494Z,11.40
2022-09-18T13:07:28.435Z,11.30
2022-09-18T13:10:37.259Z,11.30
2022-09-18T13:13:53.019Z,11.30
2022-09-18T13:17:06.725Z,11.30
2022-09-18T13:20:29.112Z,11.30
2022-09-18T13:23:36.651Z,11.40
2022-09-18T13:26:39.545Z,11.40
2022-09-18T13:29:50.985Z,11.50
2022-09-18T13:32:54.244Z,11.40
2022-09-18T13:35:57.728Z,11.40
2022-09-18T13:39:16.856Z,11.40
2022-09-18T13:42:39.640Z,11.50
2022-09-18T13:45:41.378Z,11.40
2022-09-18T13:48:46.444Z,11.40
2022-09-18T13:51:48.285Z,11.40
2022-09-18T13:55:11.261Z,11.40
2022-09-18T13:58:31.714Z,11.50
2022-09-18T14:01:42.871Z,11.60
2022-09-18T14:04:46.857Z,11.50
2022-09-18T14:07:54.041Z,11.50
2022-09-18T14:11:15.449Z,11.60
2022-09-18T14:14:22.831Z,11.50
2022-09-18T14:17:25.706Z,11.60
2022-09-18T14:20:27.969Z,11.50
2022-09-18T14:23:35.849Z,11.40
2022-09-18T14:26:38.416Z,11.40
2022-09-18T14:29:40.392Z,11.40
2022-09-18T14:32:53.047Z,11.40
2022-09-18T14:36:02.069Z,11.30
2022-09-18T14:39:03.812Z,11.30
2022-09-18T14:42:07.379Z,11.30
2022-09-18T14:45:14.859Z,11.20
2022-09-18T14:48:25.445Z,11.20
2022-09-18T14:51:37.578Z,11.20
2022-09-18T14:54:48.572Z,11.20
2022-09-18T14:57:55.009Z,11.10
2022-09-18T15:00:56.847Z,11.10
2022-09-18T15:04:00.962Z,11.10
2022-09-18T15:07:02.753Z,10.90
2022-09-18T15:10:07.120Z,10.90
2022-09-18T15:13:09.620Z,11.00
2022-09-18T15:16:20.003Z,11.00
2022-09-18T15:19:22.051Z,10.90
2022-09-18T15:22:24.632Z,11.00
2022-09-18T15:25:33.094Z,10.90
2022-09-18T15:28:37.904Z,10.90
2022-09-18T15:31:39.924Z,10.80
2022-09-18T15:34:48.681Z,10.80
2022-09-18T15:37:53.971Z,10.90
2022-09-18T15:40:55.948Z,10.70
2022-09-18T15:43:58.029Z,10.70
2022-09-18T15:47:25.603Z,10.70
2022-09-18T15:50:38.650Z,10.70
2022-09-18T15:53:40.411Z,10.50
2022-09-18T15:56:54.039Z,10.50
2022-09-18T15:59:57.260Z,10.60
2022-09-18T16:03:17.982Z,10.60
2022-09-18T16:06:24.586Z,10.50
2022-09-18T16:09:34.947Z,10.40
2022-09-18T16:12:39.740Z,10.40
2022-09-18T16:15:47.486Z,10.40
2022-09-18T16:19:07.306Z,10.30
2022-09-18T16:22:10.984Z,10.20
2022-09-18T16:25:19.283Z,10.20
2022-09-18T16:28:26.852Z,10.20
2022-09-18T16:31:37.335Z,10.30
2022-09-18T16:34:40.168Z,10.20
2022-09-18T16:37:43.900Z,10.10
2022-09-18T16:40:47.069Z,10.10
2022-09-18T16:43:48.830Z,10.20
2022-09-18T16:47:04.423Z,10.00
2022-09-18T16:50:06.650Z,10.00
2022-09-18T16:53:08.953Z,10.00
2022-09-18T16:56:15.108Z,9.90
2022-09-18T16:59:17.755Z,10.00
2022-09-18T17:02:24.336Z,9.90
2022-09-18T17:05:27.708Z,10.00
2022-09-18T17:08:30.255Z,9.90
2022-09-18T17:11:31.912Z,9.90
2022-09-18T17:14:34.716Z,10.00
2022-09-18T17:17:36.525Z,10.00
2022-09-18T17:20:38.475Z,9.90
2022-09-18T17:23:40.112Z,10.00
2022-09-18T17:26:42.200Z,10.00
2022-09-18T17:29:44.188Z,10.00
2022-09-18T17:32:49.441Z,9.90
2022-09-18T17:35:51.108Z,10.00
2022-09-18T17:38:52.747Z,10.00
2022-09-18T17:41:55.622Z,10.00
2022-09-18T17:44:57.297Z,10.00
2022-09-18T17:47:59.021Z,10.00
2022-09-18T17:51:04.077Z,10.00
2022-09-18T17:54:06.001Z,9.90
2022-09-18T17:57:11.550Z,9.90
2022-09-18T18:00:13.427Z,9.90
2022-09-18T18:03:15.125Z,9.90
2022-09-18T18:06:21.512Z,9.90
2022-09-18T18:09:23.528Z,9.80
2022-09-18T18:12:25.215Z,9.80
2022-09-18T18:15:26.877Z,10.40
2022-09-18T18:18:28.552Z,9.80
2022-09-18T18:21:32.165Z,9.70
2022-09-18T18:24:33.827Z,9.70
2022-09-18T18:27:35.528Z,9.70
2022-09-18T18:30:38.367Z,9.70
2022-09-18T18:33:42.624Z,9.70
2022-09-18T18:36:44.317Z,9.70
2022-09-18T18:39:48.008Z,9.70
2022-09-18T18:42:50.066Z,9.70
2022-09-18T18:45:56.388Z,9.70
2022-09-18T18:49:03.740Z,9.70
2022-09-18T18:52:05.608Z,9.80
2022-09-18T18:55:07.439Z,9.80
2022-09-18T18:58:09.208Z,9.80
2022-09-18T19:01:18.523Z,9.70
2022-09-18T19:04:20.374Z,9.80
2022-09-18T19:07:22.019Z,9.80
2022-09-18T19:10:25.076Z,9.70
2022-09-18T19:13:28.257Z,9.70
2022-09-18T19:16:32.122Z,9.70
2022-09-18T19:19:33.949Z,9.60
2022-09-18T19:22:35.601Z,9.70
2022-09-18T19:25:37.313Z,9.70
2022-09-18T19:28:38.947Z,9.70
2022-09-18T19:31:42.806Z,9.70
2022-09-18T19:34:44.521Z,9.60
2022-09-18T19:37:46.230Z,9.70
2022-09-18T19:40:51.015Z,9.70
2022-09-18T19:43:53.980Z,9.70
2022-09-18T19:46:59.450Z,9.80
2022-09-18T19:50:03.640Z,9.80
2022-09-18T19:53:05.704Z,9.80
2022-09-18T19:56:22.574Z,9.80
2022-09-18T19:59:30.823Z,9.90
2022-09-18T20:02:32.504Z,9.90
2022-09-18T20:05:41.343Z,10.00
2022-09-18T20:08:42.984Z,9.90
2022-09-18T20:11:48.139Z,10.00
2022-09-18T20:14:50.697Z,10.00
2022-09-18T20:17:52.563Z,10.00
2022-09-18T20:20:54.643Z,10.00
2022-09-18T20:23:57.953Z,10.00
2022-09-18T20:27:00.672Z,10.10
2022-09-18T20:30:03.836Z,10.10
2022-09-18T20:33:05.923Z,10.10
2022-09-18T20:36:11.075Z,10.10
2022-09-18T20:39:12.724Z,10.10
2022-09-18T20:42:14.381Z,10.10
2022-09-18T20:45:16.278Z,10.10
2022-09-18T20:48:21.471Z,10.20
2022-09-18T20:51:33.325Z,10.10
2022-09-18T20:54:34.975Z,10.20
2022-09-18T20:57:37.172Z,10.20
2022-09-18T21:00:38.900Z,10.20
2022-09-18T21:03:45.233Z,10.20
2022-09-18T21:06:55.961Z,10.20
2022-09-18T21:09:58.326Z,10.20
2022-09-18T21:13:01.044Z,10.20
2022-09-18T21:16:02.706Z,10.10
2022-09-18T21:19:04.912Z,10.10
2022-09-18T21:22:06.676Z,10.10
2022-09-18T21:25:08.984Z,10.10
2022-09-18T21:28:10.638Z,10.10
2022-09-18T21:31:12.429Z,10.20
2022-09-18T21:34:24.238Z,10.10
2022-09-18T21:37:25.971Z,10.20
2022-09-18T21:40:28.320Z,10.10
2022-09-18T21:43:31.935Z,10.10
2022-09-18T21:46:39.135Z,10.10
2022-09-18T21:49:40.909Z,10.20
2022-09-18T21:52:44.678Z,10.20
2022-09-18T21:55:47.624Z,10.20
2022-09-18T21:58:50.194Z,10.20
2022-09-18T22:01:54.617Z,10.20
2022-09-18T22:04:57.535Z,10.20
2022-09-18T22:08:00.019Z,10.30
2022-09-18T22:11:02.811Z,10.20
2022-09-18T22:14:08.455Z,10.20
2022-09-18T22:17:10.682Z,10.20
2022-09-18T22:20:12.347Z,10.30
2022-09-18T22:23:13.997Z,10.30
2022-09-18T22:26:16.031Z,10.30
2022-09-18T22:29:21.130Z,10.30
2022-09-18T22:32:23.928Z,10.30
2022-09-18T22:35:25.579Z,10.30
2022-09-18T22:38:27.241Z,10.30
2022-09-18T22:41:28.940Z,10.30
2022-09-18T22:44:31.352Z,10.30
2022-09-18T22:47:33.011Z,10.40
2022-09-18T22:50:34.645Z,10.30
2022-09-18T22:53:37.412Z,10.40
2022-09-18T22:56:41.479Z,10.40
2022-09-18T22:59:43.134Z,10.40
2022-09-18T23:02:45.214Z,10.40
2022-09-18T23:05:47.010Z,10.40
2022-09-18T23:08:48.688Z,10.40
2022-09-18T23:11:54.234Z,10.40
2022-09-18T23:14:55.863Z,10.40
2022-09-18T23:17:57.594Z,10.40
2022-09-18T23:21:01.855Z,10.30
2022-09-18T23:24:08.908Z,10.40
2022-09-18T23:27:10.858Z,10.40
2022-09-18T23:30:12.595Z,10.40
2022-09-18T23:33:14.701Z,10.40
2022-09-18T23:36:19.254Z,10.40
2022-09-18T23:39:28.512Z,10.40
2022-09-18T23:42:30.185Z,10.40
2022-09-18T23:45:31.895Z,10.40
2022-09-18T23:48:33.571Z,10.40
2022-09-18T23:51:38.246Z,10.30
2022-09-18T23:54:39.884Z,10.30
2022-09-18T23:57:41.544Z,10.30
